Time,TemperatureF,DewpointF,PressureIn,WindDirection,WindDirectionDegrees,WindSpeedMPH,WindSpeedGustMPH,Humidity,HourlyPrecipIn,Conditions,Clouds,dailyrainin,SoftwareType,DateUTC
2013-06-18 00:02:00,57.0,44.0,29.84,WNW,292,2.0,2.0,61,0.00,,,0.02,,2013-06-18 07:02:00,
2013-06-18 00:12:00,57.0,43.0,29.84,WNW,292,2.0,2.0,60,0.00,,,0.02,,2013-06-18 07:12:00,
2013-06-18 00:22:00,56.0,42.0,29.84,WSW,254,2.0,3.0,60,0.00,,,0.02,,2013-06-18 07:22:00,
2013-06-18 00:33:00,56.0,42.0,29.84,WNW,291,3.0,3.0,60,0.00,,,0.02,,2013-06-18 07:33:00,
2013-06-18 00:42:00,56.0,42.0,29.84,West,281,3.0,6.0,60,0.00,,,0.02,,2013-06-18 07:42:00,
2013-06-18 00:52:00,56.0,42.0,29.84,West,281,3.0,6.0,60,0.00,,,0.02,,2013-06-18 07:52:00,
2013-06-18 01:01:00,55.0,42.0,29.84,WNW,287,4.0,8.0,62,0.00,,,0.02,,2013-06-18 08:01:00,
2013-06-18 01:11:00,55.0,42.0,29.84,NW,311,5.0,6.0,62,0.01,,,0.03,,2013-06-18 08:11:00,
2013-06-18 01:23:00,54.0,42.0,29.84,WSW,248,4.0,7.0,63,0.01,,,0.03,,2013-06-18 08:23:00,
2013-06-18 01:32:00,54.0,42.0,29.84,WSW,248,4.0,7.0,63,0.01,,,0.03,,2013-06-18 08:32:00,
2013-06-18 01:43:00,54.0,41.0,29.84,WSW,248,3.0,5.0,61,0.01,,,0.03,,2013-06-18 08:43:00,
2013-06-18 01:52:00,54.0,41.0,29.84,WSW,248,3.0,5.0,61,0.01,,,0.03,,2013-06-18 08:52:00,
2013-06-18 02:01:00,53.0,40.0,29.84,WNW,287,2.0,6.0,61,0.00,,,0.03,,2013-06-18 09:01:00,
2013-06-18 02:11:00,53.0,40.0,29.84,WNW,287,2.0,3.0,62,0.00,,,0.03,,2013-06-18 09:11:00,
2013-06-18 02:22:00,53.0,40.0,29.84,WNW,287,2.0,3.0,62,0.00,,,0.03,,2013-06-18 09:22:00,
2013-06-18 02:34:00,53.0,40.0,29.84,WNW,292,1.0,2.0,62,0.00,,,0.03,,2013-06-18 09:34:00,
2013-06-18 02:42:00,53.0,40.0,29.84,WNW,286,3.0,5.0,62,0.00,,,0.03,,2013-06-18 09:42:00,
2013-06-18 02:53:00,53.0,40.0,29.84,WNW,286,3.0,5.0,62,0.00,,,0.03,,2013-06-18 09:53:00,
2013-06-18 03:01:00,53.0,41.0,29.84,WNW,292,2.0,3.0,63,0.00,,,0.03,,2013-06-18 10:01:00,
2013-06-18 03:11:00,53.0,41.0,29.84,WNW,292,2.0,3.0,63,0.00,,,0.03,,2013-06-18 10:11:00,
2013-06-18 03:22:00,53.0,40.0,29.84,WNW,292,2.0,3.0,62,0.00,,,0.03,,2013-06-18 10:22:00,
2013-06-18 03:33:00,53.0,40.0,29.84,WNW,292,0.0,2.0,62,0.00,,,0.03,,2013-06-18 10:33:00,
2013-06-18 03:42:00,53.0,40.0,29.84,WNW,292,1.0,3.0,62,0.00,,,0.03,,2013-06-18 10:42:00,
2013-06-18 03:53:00,53.0,40.0,29.84,WNW,292,1.0,3.0,62,0.00,,,0.03,,2013-06-18 10:53:00,
2013-06-18 04:02:00,53.0,40.0,29.81,West,270,0.0,2.0,62,0.00,,,0.03,,2013-06-18 11:02:00,
2013-06-18 04:11:00,53.0,40.0,29.81,West,270,0.0,2.0,62,0.00,,,0.03,,2013-06-18 11:11:00,
2013-06-18 04:22:00,53.0,40.0,29.84,SSW,202,1.0,3.0,62,0.00,,,0.03,,2013-06-18 11:22:00,
2013-06-18 04:32:00,53.0,40.0,29.84,SSW,202,1.0,3.0,62,0.00,,,0.03,,2013-06-18 11:32:00,
2013-06-18 04:42:00,53.0,42.0,29.81,WSW,248,1.0,2.0,66,0.01,,,0.04,,2013-06-18 11:42:00,
2013-06-18 04:52:00,53.0,42.0,29.81,WSW,248,1.0,2.0,66,0.01,,,0.04,,2013-06-18 11:52:00,
2013-06-18 05:01:00,52.0,41.0,29.84,SW,225,0.0,1.0,66,0.01,,,0.04,,2013-06-18 12:01:00,
2013-06-18 05:11:00,52.0,41.0,29.81,SW,225,0.0,0.0,67,0.01,,,0.04,,2013-06-18 12:11:00,
2013-06-18 05:22:00,52.0,41.0,29.81,NW,315,1.0,2.0,66,0.01,,,0.04,,2013-06-18 12:22:00,
2013-06-18 05:32:00,52.0,41.0,29.81,NW,315,1.0,2.0,66,0.01,,,0.04,,2013-06-18 12:32:00,
2013-06-18 05:42:00,52.0,42.0,29.84,NNW,338,0.0,1.0,68,0.00,,,0.04,,2013-06-18 12:42:00,
2013-06-18 05:52:00,52.0,42.0,29.84,NNW,338,0.0,1.0,68,0.00,,,0.04,,2013-06-18 12:52:00,
2013-06-18 06:01:00,52.0,42.0,29.81,NNW,338,0.0,0.0,69,0.00,,,0.04,,2013-06-18 13:01:00,
2013-06-18 06:11:00,52.0,42.0,29.81,NNE,18,2.0,2.0,69,0.00,,,0.04,,2013-06-18 13:11:00,
2013-06-18 06:22:00,51.0,42.0,29.81,NNE,22,1.0,3.0,72,0.00,,,0.04,,2013-06-18 13:22:00,
2013-06-18 06:33:00,51.0,42.0,29.81,NNE,22,1.0,3.0,72,0.00,,,0.04,,2013-06-18 13:33:00,
2013-06-18 06:43:00,51.0,43.0,29.81,NNW,338,3.0,6.0,73,0.00,,,0.04,,2013-06-18 13:43:00,
2013-06-18 06:52:00,51.0,43.0,29.81,NNW,338,3.0,6.0,73,0.00,,,0.04,,2013-06-18 13:52:00,
2013-06-18 07:02:00,51.0,43.0,29.81,NNE,24,2.0,5.0,75,0.00,,,0.04,,2013-06-18 14:02:00,
2013-06-18 07:11:00,51.0,42.0,29.84,NNE,22,2.0,3.0,72,0.00,,,0.04,,2013-06-18 14:11:00,
2013-06-18 07:22:00,51.0,44.0,29.84,NNW,331,3.0,5.0,76,0.00,,,0.04,,2013-06-18 14:22:00,
2013-06-18 07:33:00,51.0,44.0,29.84,NNW,331,3.0,5.0,76,0.00,,,0.04,,2013-06-18 14:33:00,
2013-06-18 07:42:00,50.0,41.0,29.84,North,352,3.0,5.0,72,0.00,,,0.04,,2013-06-18 14:42:00,
2013-06-18 07:52:00,50.0,41.0,29.84,North,352,3.0,5.0,72,0.00,,,0.04,,2013-06-18 14:52:00,
2013-06-18 08:01:00,50.0,42.0,29.84,NNE,12,2.0,3.0,73,0.00,,,0.04,,2013-06-18 15:01:00,
2013-06-18 08:11:00,50.0,41.0,29.84,NNE,27,2.0,3.0,72,0.00,,,0.04,,2013-06-18 15:11:00,
2013-06-18 08:22:00,51.0,42.0,29.81,NNW,338,2.0,3.0,72,0.00,,,0.04,,2013-06-18 15:22:00,
2013-06-18 08:33:00,50.0,42.0,29.84,NNW,338,3.0,7.0,73,0.00,,,0.04,,2013-06-18 15:33:00,
2013-06-18 08:42:00,50.0,42.0,29.84,NW,326,3.0,6.0,75,0.00,,,0.04,,2013-06-18 15:42:00,
2013-06-18 08:52:00,50.0,42.0,29.84,NW,326,3.0,6.0,75,0.00,,,0.04,,2013-06-18 15:52:00,
2013-06-18 09:01:00,50.0,43.0,29.84,NNW,338,3.0,6.0,78,0.00,,,0.04,,2013-06-18 16:01:00,
2013-06-18 09:11:00,50.0,43.0,29.84,NNW,338,3.0,6.0,78,0.00,,,0.04,,2013-06-18 16:11:00,
2013-06-18 09:22:00,49.0,45.0,29.84,NNW,338,5.0,7.0,85,0.00,,,0.04,,2013-06-18 16:22:00,
2013-06-18 09:33:00,49.0,45.0,29.81,NNW,338,3.0,6.0,86,0.01,,,0.05,,2013-06-18 16:33:00,
2013-06-18 09:43:00,49.0,45.0,29.81,NW,326,4.0,6.0,87,0.01,,,0.05,,2013-06-18 16:43:00,
2013-06-18 09:52:00,49.0,45.0,29.81,NW,326,4.0,6.0,87,0.01,,,0.05,,2013-06-18 16:52:00,
2013-06-18 10:01:00,49.0,48.0,29.84,NNW,327,6.0,8.0,95,0.02,,,0.06,,2013-06-18 17:01:00,
2013-06-18 10:11:00,49.0,47.0,29.84,NNW,333,6.0,8.0,93,0.02,,,0.06,,2013-06-18 17:11:00,
2013-06-18 10:22:00,49.0,46.0,29.81,North,3,3.0,7.0,91,0.02,,,0.06,,2013-06-18 17:22:00,
2013-06-18 10:33:00,49.0,46.0,29.81,NNW,338,2.0,5.0,90,0.04,,,0.09,,2013-06-18 17:33:00,
2013-06-18 10:43:00,49.0,46.0,29.81,NNW,332,3.0,5.0,91,0.07,,,0.12,,2013-06-18 17:43:00,
2013-06-18 10:53:00,49.0,47.0,29.81,NNW,338,5.0,6.0,92,0.08,,,0.14,,2013-06-18 17:53:00,
2013-06-18 11:01:00,49.0,47.0,29.81,NNW,346,5.0,7.0,92,0.08,,,0.14,,2013-06-18 18:01:00,
2013-06-18 11:11:00,50.0,48.0,29.81,North,351,4.0,7.0,92,0.08,,,0.14,,2013-06-18 18:11:00,
2013-06-18 11:22:00,50.0,46.0,29.81,NNE,13,5.0,6.0,86,0.08,,,0.14,,2013-06-18 18:22:00,
2013-06-18 11:33:00,50.0,46.0,29.81,NNW,332,5.0,6.0,86,0.05,,,0.14,,2013-06-18 18:33:00,
2013-06-18 11:42:00,50.0,45.0,29.81,NNW,348,3.0,6.0,82,0.02,,,0.14,,2013-06-18 18:42:00,
2013-06-18 11:53:00,50.0,44.0,29.81,NNE,14,3.0,5.0,80,0.00,,,0.14,,2013-06-18 18:53:00,
2013-06-18 12:01:00,51.0,46.0,29.81,NW,322,3.0,5.0,84,0.01,,,0.15,,2013-06-18 19:01:00,
2013-06-18 12:11:00,51.0,46.0,29.81,NW,322,3.0,5.0,84,0.01,,,0.15,,2013-06-18 19:11:00,
2013-06-18 12:22:00,52.0,47.0,29.81,NW,326,4.0,6.0,84,0.01,,,0.15,,2013-06-18 19:22:00,
2013-06-18 12:33:00,53.0,47.0,29.81,NNE,13,2.0,6.0,80,0.01,,,0.15,,2013-06-18 19:33:00,
2013-06-18 12:42:00,53.0,46.0,29.81,NNW,339,3.0,7.0,78,0.01,,,0.15,,2013-06-18 19:42:00,
2013-06-18 12:52:00,53.0,46.0,29.81,NNW,339,3.0,7.0,78,0.01,,,0.15,,2013-06-18 19:52:00,
2013-06-18 13:01:00,54.0,47.0,29.81,ENE,68,3.0,6.0,77,0.01,,,0.15,,2013-06-18 20:01:00,
2013-06-18 13:11:00,55.0,46.0,29.81,NNE,33,3.0,6.0,72,0.00,,,0.15,,2013-06-18 20:11:00,
2013-06-18 13:22:00,56.0,46.0,29.81,East,87,2.0,6.0,68,0.00,,,0.15,,2013-06-18 20:22:00,
2013-06-18 13:33:00,57.0,46.0,29.81,ESE,110,2.0,6.0,66,0.00,,,0.15,,2013-06-18 20:33:00,
2013-06-18 13:43:00,57.0,46.0,29.81,NNE,26,2.0,5.0,66,0.00,,,0.15,,2013-06-18 20:43:00,
2013-06-18 13:52:00,57.0,46.0,29.81,NNE,26,2.0,5.0,66,0.00,,,0.15,,2013-06-18 20:52:00,
2013-06-18 14:01:00,57.0,45.0,29.81,NNE,33,3.0,6.0,64,0.00,,,0.15,,2013-06-18 21:01:00,
2013-06-18 14:11:00,57.0,45.0,29.78,NNE,22,3.0,5.0,64,0.00,,,0.15,,2013-06-18 21:11:00,
2013-06-18 14:22:00,57.0,45.0,29.78,North,9,4.0,7.0,63,0.00,,,0.15,,2013-06-18 21:22:00,
2013-06-18 14:33:00,57.0,45.0,29.78,NE,43,5.0,7.0,63,0.00,,,0.15,,2013-06-18 21:33:00,
2013-06-18 14:43:00,57.0,43.0,29.78,NNE,14,5.0,7.0,60,0.00,,,0.15,,2013-06-18 21:43:00,
2013-06-18 14:52:00,57.0,44.0,29.78,ENE,68,5.0,8.0,62,0.00,,,0.15,,2013-06-18 21:52:00,
2013-06-18 15:01:00,57.0,44.0,29.78,East,86,3.0,6.0,62,0.00,,,0.15,,2013-06-18 22:01:00,
2013-06-18 15:11:00,57.0,44.0,29.78,East,86,3.0,6.0,62,0.00,,,0.15,,2013-06-18 22:11:00,
2013-06-18 15:22:00,58.0,44.0,29.78,SE,136,2.0,6.0,60,0.00,,,0.15,,2013-06-18 22:22:00,
2013-06-18 15:34:00,58.0,44.0,29.78,SE,136,2.0,6.0,60,0.00,,,0.15,,2013-06-18 22:34:00,
2013-06-18 15:42:00,58.0,43.0,29.78,NNE,23,4.0,7.0,57,0.00,,,0.15,,2013-06-18 22:42:00,
2013-06-18 15:53:00,58.0,43.0,29.78,NNE,23,4.0,7.0,57,0.00,,,0.15,,2013-06-18 22:53:00,
2013-06-18 16:01:00,58.0,44.0,29.78,East,93,4.0,7.0,60,0.00,,,0.15,,2013-06-18 23:01:00,
2013-06-18 16:11:00,58.0,44.0,29.78,ENE,70,3.0,7.0,59,0.00,,,0.15,,2013-06-18 23:11:00,
2013-06-18 16:23:00,57.0,42.0,29.78,North,358,6.0,8.0,57,0.00,,,0.15,,2013-06-18 23:23:00,
2013-06-18 16:35:00,56.0,43.0,29.78,NNE,17,5.0,8.0,62,0.01,,,0.16,,2013-06-18 23:35:00,
2013-06-18 16:44:00,56.0,44.0,29.78,ENE,68,3.0,6.0,64,0.01,,,0.16,,2013-06-18 23:44:00,
2013-06-18 16:53:00,56.0,44.0,29.78,ENE,68,3.0,6.0,64,0.01,,,0.16,,2013-06-18 23:53:00,
2013-06-18 17:01:00,55.0,44.0,29.75,ESE,110,3.0,6.0,67,0.01,,,0.16,,2013-06-19 00:01:00,
2013-06-18 17:11:00,55.0,45.0,29.75,SE,132,3.0,6.0,70,0.01,,,0.16,,2013-06-19 00:11:00,
2013-06-18 17:22:00,55.0,45.0,29.75,SE,125,3.0,7.0,70,0.01,,,0.16,,2013-06-19 00:22:00,
2013-06-18 17:33:00,55.0,46.0,29.78,SSE,158,2.0,3.0,71,0.00,,,0.16,,2013-06-19 00:33:00,
2013-06-18 17:43:00,55.0,46.0,29.78,SSE,158,1.0,2.0,72,0.00,,,0.16,,2013-06-19 00:43:00,
2013-06-18 17:53:00,55.0,46.0,29.78,SSE,158,1.0,2.0,72,0.00,,,0.16,,2013-06-19 00:53:00,
2013-06-18 18:01:00,54.0,46.0,29.78,WNW,292,4.0,6.0,74,0.10,,,0.27,,2013-06-19 01:01:00,
2013-06-18 18:11:00,53.0,46.0,29.78,NW,311,3.0,5.0,76,0.13,,,0.29,,2013-06-19 01:11:00,
2013-06-18 18:22:00,52.0,45.0,29.78,NW,316,3.0,3.0,78,0.15,,,0.31,,2013-06-19 01:22:00,
2013-06-18 18:32:00,52.0,45.0,29.78,NW,316,3.0,3.0,78,0.15,,,0.31,,2013-06-19 01:32:00,
2013-06-18 18:42:00,52.0,45.0,29.78,NW,316,3.0,3.0,78,0.15,,,0.31,,2013-06-19 01:42:00,
2013-06-18 18:53:00,53.0,46.0,29.78,ESE,106,3.0,5.0,76,0.15,,,0.31,,2013-06-19 01:53:00,
2013-06-18 19:01:00,53.0,46.0,29.78,ESE,106,3.0,5.0,76,0.15,,,0.31,,2013-06-19 02:01:00,
2013-06-18 19:11:00,53.0,46.0,29.78,ESE,106,3.0,5.0,76,0.15,,,0.31,,2013-06-19 02:11:00,
2013-06-18 19:21:00,53.0,46.0,29.78,ESE,106,3.0,5.0,76,0.15,,,0.31,,2013-06-19 02:21:00,
2013-06-18 19:32:00,53.0,46.0,29.78,ESE,112,5.0,7.0,78,0.15,,,0.31,,2013-06-19 02:32:00,
2013-06-18 19:42:00,54.0,46.0,29.75,SSE,151,5.0,7.0,75,0.00,,,0.31,,2013-06-19 02:42:00,
2013-06-18 19:52:00,54.0,46.0,29.75,ESE,117,5.0,7.0,74,0.00,,,0.31,,2013-06-19 02:52:00,
2013-06-18 20:01:00,53.0,45.0,29.75,SE,134,5.0,6.0,74,0.00,,,0.31,,2013-06-19 03:01:00,
2013-06-18 20:11:00,53.0,45.0,29.78,SE,129,3.0,5.0,74,0.00,,,0.31,,2013-06-19 03:11:00,
2013-06-18 20:21:00,53.0,45.0,29.78,ESE,114,2.0,5.0,73,0.00,,,0.31,,2013-06-19 03:21:00,
2013-06-18 20:32:00,53.0,45.0,29.78,ESE,114,2.0,5.0,73,0.00,,,0.31,,2013-06-19 03:32:00,
2013-06-18 20:42:00,53.0,45.0,29.78,ESE,117,2.0,3.0,73,0.00,,,0.31,,2013-06-19 03:42:00,
2013-06-18 20:52:00,51.0,42.0,29.78,North,1,4.0,7.0,72,0.00,,,0.29,,2013-06-19 03:52:00,
2013-06-18 21:01:00,51.0,42.0,29.78,North,8,3.0,5.0,72,0.00,,,0.29,,2013-06-19 04:01:00,
2013-06-18 21:11:00,50.0,42.0,29.78,North,5,3.0,7.0,73,0.00,,,0.29,,2013-06-19 04:11:00,
2013-06-18 21:22:00,50.0,42.0,29.78,North,5,3.0,7.0,73,0.00,,,0.29,,2013-06-19 04:22:00,
2013-06-18 21:32:00,50.0,42.0,29.78,North,5,3.0,7.0,73,0.00,,,0.29,,2013-06-19 04:32:00,
2013-06-18 21:42:00,50.0,42.0,29.78,North,5,3.0,7.0,73,0.00,,,0.29,,2013-06-19 04:42:00,
2013-06-18 21:52:00,50.0,42.0,29.78,North,5,3.0,7.0,73,0.00,,,0.29,,2013-06-19 04:52:00,
2013-06-18 22:01:00,50.0,42.0,29.78,ENE,68,1.0,2.0,73,0.00,,,0.29,,2013-06-19 05:01:00,
2013-06-18 22:11:00,50.0,42.0,29.78,ENE,68,1.0,2.0,73,0.00,,,0.29,,2013-06-19 05:11:00,
2013-06-18 22:22:00,48.0,41.0,29.81,WNW,297,5.0,8.0,76,0.02,,,0.31,,2013-06-19 05:22:00,
2013-06-18 22:32:00,48.0,41.0,29.78,West,263,6.0,9.0,77,0.04,,,0.32,,2013-06-19 05:32:00,
2013-06-18 22:42:00,47.0,39.0,29.78,NW,311,5.0,6.0,75,0.05,,,0.33,,2013-06-19 05:42:00,
2013-06-18 22:52:00,47.0,39.0,29.78,West,280,6.0,8.0,75,0.06,,,0.35,,2013-06-19 05:52:00,
2013-06-18 23:01:00,47.0,39.0,29.78,WNW,292,6.0,9.0,75,0.06,,,0.35,,2013-06-19 06:01:00,
2013-06-18 23:11:00,47.0,39.0,29.78,WNW,292,6.0,9.0,75,0.06,,,0.35,,2013-06-19 06:11:00,
2013-06-18 23:21:00,47.0,39.0,29.78,WNW,296,7.0,9.0,74,0.05,,,0.35,,2013-06-19 06:21:00,
2013-06-18 23:33:00,47.0,39.0,29.78,WNW,292,6.0,9.0,74,0.04,,,0.35,,2013-06-19 06:33:00,
2013-06-18 23:42:00,47.0,39.0,29.78,WSW,255,9.0,12.0,73,0.01,,,0.35,,2013-06-19 06:42:00,
2013-06-18 23:52:00,47.0,39.0,29.78,WNW,292,8.0,10.0,73,0.00,,,0.35,,2013-06-19 06:52:00,